createdAt,value
2023-08-18T00:00:10.093Z,27.40
2023-08-18T00:02:37.110Z,27.40
2023-08-18T00:05:04.062Z,27.30
2023-08-18T00:07:31.640Z,27.30
2023-08-18T00:09:58.649Z,27.20
2023-08-18T00:12:25.631Z,27.30
2023-08-18T00:14:53.414Z,27.20
2023-08-18T00:17:20.308Z,27.20
2023-08-18T00:19:48.018Z,27.20
2023-08-18T00:22:15.033Z,27.20
2023-08-18T00:24:41.906Z,27.20
2023-08-18T00:27:08.890Z,27.10
2023-08-18T00:29:35.786Z,27.10
2023-08-18T00:32:02.674Z,27.10
2023-08-18T00:34:29.831Z,27.10
2023-08-18T00:36:57.714Z,27.10
2023-08-18T00:39:24.660Z,27.00
2023-08-18T00:41:52.332Z,26.90
2023-08-18T00:44:19.186Z,27.00
2023-08-18T00:46:46.605Z,27.00
2023-08-18T00:49:13.901Z,26.90
2023-08-18T00:51:41.916Z,26.90
2023-08-18T00:54:10.342Z,27.00
2023-08-18T00:56:37.571Z,26.90
2023-08-18T00:59:06.448Z,26.90
2023-08-18T01:01:34.572Z,26.80
2023-08-18T01:04:02.350Z,26.80
2023-08-18T01:06:29.308Z,26.90
2023-08-18T01:08:56.441Z,26.90
2023-08-18T01:11:35.878Z,26.80
2023-08-18T01:14:29.262Z,26.70
2023-08-18T01:17:09.522Z,26.80
2023-08-18T01:19:36.979Z,26.70
2023-08-18T01:22:07.306Z,26.60
2023-08-18T01:24:34.127Z,26.60
2023-08-18T01:27:01.025Z,26.60
2023-08-18T01:29:28.963Z,26.50
2023-08-18T01:32:00.836Z,26.50
2023-08-18T01:34:30.418Z,26.50
2023-08-18T01:36:59.132Z,26.50
2023-08-18T01:39:27.865Z,26.40
2023-08-18T01:41:54.950Z,26.50
2023-08-18T01:44:21.868Z,26.40
2023-08-18T01:46:48.903Z,26.40
2023-08-18T01:49:15.980Z,26.40
2023-08-18T01:51:42.992Z,26.40
2023-08-18T01:54:09.900Z,26.40
2023-08-18T01:56:36.736Z,26.30
2023-08-18T01:59:05.191Z,26.40
2023-08-18T02:01:32.809Z,26.40
2023-08-18T02:03:59.795Z,26.20
2023-08-18T02:06:26.720Z,26.20
2023-08-18T02:08:53.568Z,26.20
2023-08-18T02:11:20.545Z,26.20
2023-08-18T02:13:47.416Z,26.30
2023-08-18T02:16:14.884Z,26.30
2023-08-18T02:18:42.084Z,26.20
2023-08-18T02:21:09.011Z,26.20
2023-08-18T02:23:36.011Z,26.10
2023-08-18T02:26:04.615Z,26.20
2023-08-18T02:28:32.343Z,26.10
2023-08-18T02:31:07.543Z,26.10
2023-08-18T02:33:35.641Z,26.10
2023-08-18T02:36:02.608Z,26.10
2023-08-18T02:38:30.291Z,26.10
2023-08-18T02:40:57.403Z,26.00
2023-08-18T02:43:25.676Z,26.00
2023-08-18T02:46:01.294Z,26.00
2023-08-18T02:48:30.145Z,26.00
2023-08-18T02:51:04.634Z,26.00
2023-08-18T02:53:32.246Z,26.00
2023-08-18T02:56:02.108Z,26.00
2023-08-18T02:58:30.217Z,25.90
2023-08-18T03:01:01.670Z,25.90
2023-08-18T03:03:28.593Z,25.90
2023-08-18T03:06:00.646Z,25.80
2023-08-18T03:08:27.559Z,25.80
2023-08-18T03:10:59.963Z,25.80
2023-08-18T03:13:27.430Z,25.80
2023-08-18T03:15:54.496Z,25.80
2023-08-18T03:18:21.561Z,25.70
2023-08-18T03:20:49.137Z,25.80
2023-08-18T03:23:17.154Z,25.70
2023-08-18T03:25:44.757Z,25.70
2023-08-18T03:28:12.504Z,25.80
2023-08-18T03:30:39.992Z,25.70
2023-08-18T03:33:09.904Z,25.80
2023-08-18T03:35:37.346Z,25.70
2023-08-18T03:38:05.115Z,25.70
2023-08-18T03:40:32.754Z,25.70
2023-08-18T03:42:59.693Z,25.60
2023-08-18T03:45:26.617Z,25.70
2023-08-18T03:47:53.586Z,25.70
2023-08-18T03:50:22.821Z,25.70
2023-08-18T03:52:50.044Z,25.60
2023-08-18T03:55:17.659Z,25.60
2023-08-18T03:57:44.614Z,25.70
2023-08-18T04:00:12.764Z,25.60
2023-08-18T04:02:39.774Z,25.50
2023-08-18T04:05:07.274Z,25.70
2023-08-18T04:07:34.149Z,25.70
2023-08-18T04:10:01.072Z,25.70
2023-08-18T04:12:28.305Z,25.60
2023-08-18T04:14:55.337Z,25.70
2023-08-18T04:17:24.058Z,25.60
2023-08-18T04:19:50.993Z,25.60
2023-08-18T04:22:17.845Z,25.60
2023-08-18T04:24:44.900Z,25.70
2023-08-18T04:27:11.741Z,25.70
2023-08-18T04:29:38.635Z,25.70
2023-08-18T04:32:05.715Z,25.70
2023-08-18T04:34:32.639Z,25.70
2023-08-18T04:36:59.498Z,25.70
2023-08-18T04:39:26.320Z,25.70
2023-08-18T04:41:53.107Z,25.70
2023-08-18T04:44:20.187Z,25.70
2023-08-18T04:46:47.060Z,25.60
2023-08-18T04:49:13.917Z,25.70
2023-08-18T04:51:40.757Z,25.60
2023-08-18T04:54:07.608Z,25.70
2023-08-18T04:56:34.481Z,25.80
2023-08-18T04:59:01.374Z,25.80
2023-08-18T05:01:29.597Z,25.90
2023-08-18T05:03:58.454Z,25.90
2023-08-18T05:06:25.477Z,26.00
2023-08-18T05:08:52.366Z,26.10
2023-08-18T05:11:19.481Z,26.20
2023-08-18T05:13:46.294Z,26.20
2023-08-18T05:16:13.130Z,26.30
2023-08-18T05:18:40.049Z,26.30
2023-08-18T05:21:07.083Z,26.30
2023-08-18T05:23:33.952Z,26.30
2023-08-18T05:26:01.461Z,26.30
2023-08-18T05:28:33.876Z,26.40
2023-08-18T05:31:01.347Z,26.30
2023-08-18T05:33:28.234Z,26.40
2023-08-18T05:35:59.731Z,26.40
2023-08-18T05:38:28.000Z,26.40
2023-08-18T05:41:04.201Z,26.40
2023-08-18T05:43:31.192Z,26.50
2023-08-18T05:45:58.047Z,26.40
2023-08-18T05:48:25.096Z,26.40
2023-08-18T05:50:51.950Z,26.40
2023-08-18T05:53:18.805Z,26.40
2023-08-18T05:55:48.127Z,26.50
2023-08-18T05:58:15.178Z,26.50
2023-08-18T06:00:42.425Z,26.40
2023-08-18T06:03:09.399Z,26.60
2023-08-18T06:05:36.315Z,26.60
2023-08-18T06:08:03.332Z,26.50
2023-08-18T06:10:30.159Z,26.50
2023-08-18T06:12:57.064Z,26.60
2023-08-18T06:15:24.861Z,26.50
2023-08-18T06:17:51.713Z,26.60
2023-08-18T06:20:18.753Z,26.60
2023-08-18T06:22:45.731Z,26.70
2023-08-18T06:25:12.801Z,26.80
2023-08-18T06:27:40.285Z,26.90
2023-08-18T06:30:07.654Z,26.80
2023-08-18T06:32:35.140Z,26.80
2023-08-18T06:35:02.207Z,26.80
2023-08-18T06:37:29.165Z,26.80
2023-08-18T06:39:57.056Z,26.90
2023-08-18T06:42:24.097Z,26.90
2023-08-18T06:44:50.890Z,26.80
2023-08-18T06:47:17.824Z,26.90
2023-08-18T06:49:45.064Z,27.00
2023-08-18T06:52:11.947Z,27.00
2023-08-18T06:54:41.680Z,27.00
2023-08-18T06:57:08.770Z,27.00
2023-08-18T06:59:35.683Z,27.10
2023-08-18T07:02:02.840Z,27.10
2023-08-18T07:04:29.776Z,27.10
2023-08-18T07:06:58.148Z,27.30
2023-08-18T07:09:24.940Z,27.30
2023-08-18T07:11:53.024Z,27.30
2023-08-18T07:14:20.213Z,27.60
2023-08-18T07:16:47.228Z,27.50
2023-08-18T07:19:14.058Z,27.60
2023-08-18T07:21:40.903Z,27.70
2023-08-18T07:24:08.910Z,27.80
2023-08-18T07:26:35.832Z,27.80
2023-08-18T07:29:04.338Z,28.00
2023-08-18T07:31:31.735Z,28.30
2023-08-18T07:33:59.421Z,28.60
2023-08-18T07:36:26.320Z,28.80
2023-08-18T07:38:53.169Z,29.10
2023-08-18T07:41:20.008Z,29.40
2023-08-18T07:43:46.860Z,29.80
2023-08-18T07:46:14.036Z,30.10
2023-08-18T07:48:41.041Z,30.50
2023-08-18T07:51:08.127Z,30.80
2023-08-18T07:53:34.957Z,31.00
2023-08-18T07:56:01.879Z,31.30
2023-08-18T07:58:28.700Z,31.60
2023-08-18T08:00:58.064Z,31.80
2023-08-18T08:03:25.507Z,32.20
2023-08-18T08:05:52.513Z,32.40
2023-08-18T08:08:19.450Z,32.50
2023-08-18T08:10:46.383Z,32.70
2023-08-18T08:13:13.213Z,32.60
2023-08-18T08:15:40.226Z,32.60
2023-08-18T08:18:12.233Z,32.40
2023-08-18T08:20:39.455Z,32.30
2023-08-18T08:23:08.347Z,32.20
2023-08-18T08:25:36.170Z,32.10
2023-08-18T08:28:03.480Z,32.10
2023-08-18T08:33:00.570Z,31.90
2023-08-18T08:35:29.460Z,31.90
2023-08-18T08:37:57.767Z,31.80
2023-08-18T08:40:25.173Z,31.70
2023-08-18T08:43:04.247Z,31.80
2023-08-18T08:45:32.976Z,31.70
2023-08-18T08:48:06.141Z,31.80
2023-08-18T08:50:38.690Z,31.80
2023-08-18T08:53:07.748Z,31.70
2023-08-18T08:55:37.016Z,31.80
2023-08-18T08:58:04.287Z,31.80
2023-08-18T09:00:31.278Z,31.80
2023-08-18T09:03:04.142Z,31.90
2023-08-18T09:05:32.476Z,32.00
2023-08-18T09:07:59.599Z,32.10
2023-08-18T09:10:28.234Z,32.10
2023-08-18T09:12:56.056Z,32.10
2023-08-18T09:15:24.660Z,32.10
2023-08-18T09:17:54.366Z,32.00
2023-08-18T09:20:22.775Z,32.10
2023-08-18T09:22:57.313Z,32.20
2023-08-18T09:25:28.187Z,32.30
2023-08-18T09:27:55.570Z,32.40
2023-08-18T09:30:24.570Z,32.40
2023-08-18T09:32:52.062Z,32.50
2023-08-18T09:35:23.010Z,32.70
2023-08-18T09:37:59.349Z,32.70
2023-08-18T09:40:26.890Z,32.80
2023-08-18T09:42:53.900Z,32.90
2023-08-18T09:45:25.577Z,33.00
2023-08-18T09:47:57.312Z,33.10
2023-08-18T09:50:30.524Z,33.10
2023-08-18T09:53:01.082Z,33.20
2023-08-18T09:55:37.447Z,33.20
2023-08-18T09:58:16.184Z,33.20
2023-08-18T10:00:45.258Z,33.30
2023-08-18T10:03:17.990Z,33.40
2023-08-18T10:05:47.724Z,33.40
2023-08-18T10:08:14.943Z,33.40
2023-08-18T10:10:42.997Z,33.40
2023-08-18T10:13:12.395Z,33.50
2023-08-18T10:15:39.883Z,33.60
2023-08-18T10:18:10.648Z,33.60
2023-08-18T10:20:47.555Z,33.60
2023-08-18T10:23:14.570Z,33.70
2023-08-18T10:25:41.409Z,33.70
2023-08-18T10:28:08.398Z,33.80
2023-08-18T10:30:35.357Z,33.90
2023-08-18T10:33:08.270Z,33.90
2023-08-18T10:35:40.259Z,33.90
2023-08-18T10:38:07.288Z,34.00
2023-08-18T10:40:36.490Z,34.00
2023-08-18T10:43:15.093Z,34.10
2023-08-18T10:45:43.269Z,34.20
2023-08-18T10:48:14.559Z,34.30
2023-08-18T10:50:45.509Z,34.40
2023-08-18T10:53:14.104Z,34.40
2023-08-18T10:55:43.988Z,34.50
2023-08-18T10:58:11.078Z,34.50
2023-08-18T11:00:38.827Z,34.50
2023-08-18T11:03:09.121Z,34.50
2023-08-18T11:05:36.234Z,34.60
2023-08-18T11:08:05.136Z,34.60
2023-08-18T11:10:32.137Z,34.70
2023-08-18T11:12:59.907Z,34.70
2023-08-18T11:15:27.405Z,34.70
2023-08-18T11:17:54.298Z,34.60
2023-08-18T11:20:21.422Z,34.70
2023-08-18T11:22:50.277Z,34.70
2023-08-18T11:25:18.222Z,34.70
2023-08-18T11:27:46.452Z,34.80
2023-08-18T11:30:14.884Z,34.90
2023-08-18T11:32:42.801Z,35.00
2023-08-18T11:35:12.537Z,35.00
2023-08-18T11:37:43.373Z,34.90
2023-08-18T11:40:11.797Z,35.00
2023-08-18T11:42:43.663Z,35.10
2023-08-18T11:45:12.744Z,35.10
2023-08-18T11:47:39.832Z,35.20
2023-08-18T11:50:08.514Z,35.30
2023-08-18T11:52:43.476Z,35.20
2023-08-18T11:55:10.966Z,35.20
2023-08-18T11:57:47.712Z,35.30
2023-08-18T12:00:15.302Z,35.30
2023-08-18T12:02:47.966Z,35.20
2023-08-18T12:05:23.354Z,35.40
2023-08-18T12:07:54.503Z,35.50
2023-08-18T12:10:23.142Z,35.50
2023-08-18T12:12:58.198Z,35.60
2023-08-18T12:15:26.764Z,35.50
2023-08-18T12:17:54.890Z,35.70
2023-08-18T12:20:23.069Z,35.80
2023-08-18T12:22:51.438Z,35.80
2023-08-18T12:25:19.698Z,35.90
2023-08-18T12:27:47.413Z,36.00
2023-08-18T12:30:15.537Z,36.10
2023-08-18T12:32:44.536Z,36.10
2023-08-18T12:35:11.991Z,36.20
2023-08-18T12:37:39.087Z,36.20
2023-08-18T12:40:06.955Z,36.20
2023-08-18T12:42:34.407Z,36.30
2023-08-18T12:45:01.302Z,36.40
2023-08-18T12:47:28.463Z,36.40
2023-08-18T12:49:55.849Z,36.40
2023-08-18T12:52:22.883Z,36.50
2023-08-18T12:54:50.185Z,36.50
2023-08-18T12:57:17.045Z,36.50
2023-08-18T12:59:43.950Z,36.50
2023-08-18T13:02:10.827Z,36.60
2023-08-18T13:04:37.738Z,36.50
2023-08-18T13:07:07.105Z,36.60
2023-08-18T13:09:34.265Z,36.60
2023-08-18T13:12:02.402Z,36.50
2023-08-18T13:14:30.242Z,36.60
2023-08-18T13:17:04.034Z,36.60
2023-08-18T13:19:32.331Z,36.70
2023-08-18T13:21:59.606Z,36.60
2023-08-18T13:24:28.072Z,36.70
2023-08-18T13:26:57.025Z,36.80
2023-08-18T13:29:25.974Z,36.80
2023-08-18T13:31:55.621Z,37.00
2023-08-18T13:34:23.129Z,37.00
2023-08-18T13:36:50.286Z,37.10
2023-08-18T13:39:20.173Z,37.10
2023-08-18T13:41:48.152Z,37.10
2023-08-18T13:44:15.293Z,37.10
2023-08-18T13:46:43.125Z,36.90
2023-08-18T13:49:12.186Z,36.90
2023-08-18T13:51:43.065Z,36.80
2023-08-18T13:54:15.219Z,36.70
2023-08-18T13:56:43.640Z,36.70
2023-08-18T13:59:10.813Z,36.60
2023-08-18T14:01:38.265Z,36.50
2023-08-18T14:04:05.743Z,36.50
2023-08-18T14:06:32.754Z,36.40
2023-08-18T14:09:01.821Z,36.40
2023-08-18T14:11:28.977Z,36.30
2023-08-18T14:13:55.886Z,36.30
2023-08-18T14:16:22.918Z,36.20
2023-08-18T14:18:49.868Z,36.20
2023-08-18T14:21:16.750Z,36.10
2023-08-18T14:23:43.930Z,35.90
2023-08-18T14:26:10.722Z,35.60
2023-08-18T14:28:37.538Z,35.30
2023-08-18T14:31:10.267Z,35.30
2023-08-18T14:33:46.457Z,35.00
2023-08-18T14:36:17.624Z,34.90
2023-08-18T14:38:45.141Z,34.70
2023-08-18T14:41:12.208Z,34.60
2023-08-18T14:43:40.293Z,34.50
2023-08-18T14:46:07.552Z,34.40
2023-08-18T14:48:35.045Z,34.40
2023-08-18T14:51:03.170Z,34.40
2023-08-18T14:53:30.194Z,34.40
2023-08-18T14:55:57.143Z,34.50
2023-08-18T14:58:28.500Z,34.70
2023-08-18T15:00:56.367Z,34.70
2023-08-18T15:03:23.619Z,34.80
2023-08-18T15:05:51.037Z,34.90
2023-08-18T15:08:18.159Z,35.00
2023-08-18T15:10:46.395Z,35.30
2023-08-18T15:13:13.325Z,35.20
2023-08-18T15:15:40.211Z,35.50
2023-08-18T15:18:07.226Z,35.50
2023-08-18T15:20:34.624Z,35.60
2023-08-18T15:23:01.497Z,35.50
2023-08-18T15:25:28.522Z,35.70
2023-08-18T15:27:55.446Z,35.80
2023-08-18T15:30:22.723Z,35.80
2023-08-18T15:32:50.027Z,35.70
2023-08-18T15:35:16.999Z,35.90
2023-08-18T15:37:43.949Z,35.80
2023-08-18T15:40:11.189Z,36.00
2023-08-18T15:42:38.185Z,36.00
2023-08-18T15:45:05.610Z,36.10
2023-08-18T15:47:33.101Z,36.10
2023-08-18T15:50:00.538Z,36.00
2023-08-18T15:52:27.503Z,36.10
2023-08-18T15:54:54.360Z,36.10
2023-08-18T15:57:21.223Z,36.00
2023-08-18T15:59:48.540Z,35.90
2023-08-18T16:02:15.411Z,36.00
2023-08-18T16:04:42.317Z,36.10
2023-08-18T16:07:09.249Z,36.00
2023-08-18T16:09:36.166Z,35.90
2023-08-18T16:12:03.062Z,36.00
2023-08-18T16:16:59.850Z,35.90
2023-08-18T16:19:28.392Z,35.90
2023-08-18T16:21:55.293Z,36.00
2023-08-18T16:24:22.166Z,35.90
2023-08-18T16:26:49.005Z,35.80
2023-08-18T16:29:16.551Z,35.70
2023-08-18T16:31:43.387Z,35.50
2023-08-18T16:34:10.248Z,35.40
2023-08-18T16:36:37.051Z,35.20
2023-08-18T16:39:04.724Z,35.10
2023-08-18T16:41:31.588Z,34.90
2023-08-18T16:43:58.449Z,34.90
2023-08-18T16:46:25.875Z,34.80
2023-08-18T16:48:52.821Z,34.80
2023-08-18T16:51:19.739Z,34.60
2023-08-18T16:53:46.657Z,34.60
2023-08-18T16:56:13.571Z,34.60
2023-08-18T16:58:40.427Z,34.40
2023-08-18T17:01:07.578Z,34.30
2023-08-18T17:03:34.762Z,34.20
2023-08-18T17:06:01.608Z,34.10
2023-08-18T17:08:28.457Z,34.10
2023-08-18T17:10:56.183Z,34.10
2023-08-18T17:13:23.686Z,34.10
2023-08-18T17:15:52.905Z,34.10
2023-08-18T17:18:19.941Z,34.10
2023-08-18T17:20:46.877Z,34.10
2023-08-18T17:23:13.749Z,33.90
2023-08-18T17:25:40.635Z,33.70
2023-08-18T17:28:07.491Z,33.70
2023-08-18T17:30:34.402Z,33.70
2023-08-18T17:33:01.658Z,33.50
2023-08-18T17:35:28.615Z,33.50
2023-08-18T17:37:57.518Z,33.30
2023-08-18T17:40:24.383Z,33.10
2023-08-18T17:42:51.263Z,32.90
2023-08-18T17:45:18.255Z,32.70
2023-08-18T17:47:45.244Z,32.60
2023-08-18T17:50:12.205Z,32.50
2023-08-18T17:52:39.139Z,32.20
2023-08-18T17:55:06.514Z,32.10
2023-08-18T17:57:33.985Z,32.10
2023-08-18T18:00:02.498Z,32.00
2023-08-18T18:02:31.770Z,31.80
2023-08-18T18:04:58.868Z,31.80
2023-08-18T18:07:25.850Z,31.60
2023-08-18T18:09:52.753Z,31.60
2023-08-18T18:12:19.658Z,31.50
2023-08-18T18:14:47.908Z,31.40
2023-08-18T18:17:15.971Z,31.40
2023-08-18T18:19:43.213Z,31.30
2023-08-18T18:22:11.379Z,31.20
2023-08-18T18:24:39.673Z,31.10
2023-08-18T18:27:11.156Z,31.00
2023-08-18T18:29:41.380Z,31.00
2023-08-18T18:32:09.940Z,31.00
2023-08-18T18:34:37.568Z,30.90
2023-08-18T18:37:05.855Z,30.90
2023-08-18T18:39:33.543Z,30.90
2023-08-18T18:42:01.492Z,30.80
2023-08-18T18:44:29.086Z,30.70
2023-08-18T18:46:55.894Z,30.70
2023-08-18T18:49:22.984Z,30.60
2023-08-18T18:51:50.049Z,30.60
2023-08-18T18:54:17.377Z,30.50
2023-08-18T18:56:44.587Z,30.50
2023-08-18T18:59:11.670Z,30.40
2023-08-18T19:01:38.722Z,30.40
2023-08-18T19:04:06.306Z,30.40
2023-08-18T19:06:33.139Z,30.30
2023-08-18T19:09:00.062Z,30.20
2023-08-18T19:11:27.023Z,30.20
2023-08-18T19:13:53.898Z,30.20
2023-08-18T19:16:22.896Z,30.20
2023-08-18T19:18:49.806Z,30.10
2023-08-18T19:21:16.718Z,30.00
2023-08-18T19:23:45.537Z,30.00
2023-08-18T19:26:12.441Z,29.90
2023-08-18T19:28:39.717Z,30.00
2023-08-18T19:31:07.809Z,29.80
2023-08-18T19:33:35.104Z,29.90
2023-08-18T19:36:02.236Z,29.80
2023-08-18T19:38:29.314Z,29.80
2023-08-18T19:40:57.915Z,29.70
2023-08-18T19:43:24.808Z,29.70
2023-08-18T19:45:56.682Z,29.50
2023-08-18T19:48:24.729Z,29.50
2023-08-18T19:50:55.619Z,29.50
2023-08-18T19:53:23.548Z,29.50
2023-08-18T19:55:51.123Z,29.40
2023-08-18T19:58:18.240Z,29.40
2023-08-18T20:00:46.142Z,29.30
2023-08-18T20:03:13.498Z,29.30
2023-08-18T20:05:40.465Z,29.20
2023-08-18T20:08:09.730Z,29.20
2023-08-18T20:10:36.584Z,29.10
2023-08-18T20:13:04.871Z,29.10
2023-08-18T20:15:32.078Z,29.10
2023-08-18T20:17:59.190Z,29.00
2023-08-18T20:20:28.686Z,29.00
2023-08-18T20:22:58.554Z,28.90
2023-08-18T20:25:26.882Z,28.90
2023-08-18T20:27:54.174Z,28.80
2023-08-18T20:30:22.316Z,28.80
2023-08-18T20:32:54.573Z,28.70
2023-08-18T20:35:25.708Z,28.80
2023-08-18T20:37:53.447Z,28.70
2023-08-18T20:40:20.570Z,28.60
2023-08-18T20:42:47.397Z,28.70
2023-08-18T20:45:14.245Z,28.60
2023-08-18T20:47:41.068Z,28.70
2023-08-18T20:50:11.488Z,28.60
2023-08-18T20:52:38.797Z,28.60
2023-08-18T20:55:08.433Z,28.60
2023-08-18T20:57:35.721Z,28.50
2023-08-18T21:00:03.586Z,28.50
2023-08-18T21:02:30.928Z,28.50
2023-08-18T21:04:58.208Z,28.40
2023-08-18T21:07:25.033Z,28.50
2023-08-18T21:09:52.877Z,28.50
2023-08-18T21:12:20.391Z,28.50
2023-08-18T21:14:47.429Z,28.50
2023-08-18T21:17:14.309Z,28.40
2023-08-18T21:19:41.248Z,28.40
2023-08-18T21:22:08.126Z,28.40
2023-08-18T21:24:35.057Z,28.30
2023-08-18T21:27:02.080Z,28.30
2023-08-18T21:29:29.011Z,28.30
2023-08-18T21:31:55.913Z,28.30
2023-08-18T21:34:22.871Z,28.20
2023-08-18T21:36:49.899Z,28.20
2023-08-18T21:39:16.838Z,28.10
2023-08-18T21:41:43.695Z,28.10
2023-08-18T21:44:11.505Z,28.10
2023-08-18T21:46:38.546Z,28.10
2023-08-18T21:49:07.461Z,28.00
2023-08-18T21:51:34.541Z,28.00
2023-08-18T21:54:01.499Z,27.90
2023-08-18T21:56:28.414Z,27.90
2023-08-18T21:58:55.237Z,27.90
2023-08-18T22:01:22.345Z,27.90
2023-08-18T22:06:18.544Z,27.90
2023-08-18T22:08:45.477Z,27.90
2023-08-18T22:11:15.625Z,27.70
2023-08-18T22:13:42.609Z,27.80
2023-08-18T22:16:09.768Z,27.70
2023-08-18T22:18:37.505Z,27.70
2023-08-18T22:21:07.520Z,27.70
2023-08-18T22:23:38.573Z,27.80
2023-08-18T22:26:12.422Z,27.60
2023-08-18T22:28:39.317Z,27.70
2023-08-18T22:31:06.235Z,27.70
2023-08-18T22:33:33.182Z,27.60
2023-08-18T22:36:00.174Z,27.60
2023-08-18T22:38:27.128Z,27.60
2023-08-18T22:41:04.114Z,27.60
2023-08-18T22:43:31.943Z,27.50
2023-08-18T22:46:00.873Z,27.60
2023-08-18T22:48:27.972Z,27.60
2023-08-18T22:50:54.876Z,27.60
2023-08-18T22:53:21.748Z,27.50
2023-08-18T22:55:49.062Z,27.50
2023-08-18T22:58:15.954Z,27.50
2023-08-18T23:00:43.136Z,27.50
2023-08-18T23:03:10.032Z,27.50
2023-08-18T23:05:39.137Z,27.50
2023-08-18T23:08:06.519Z,27.40
2023-08-18T23:10:33.351Z,27.50
2023-08-18T23:13:00.233Z,27.40
2023-08-18T23:15:27.616Z,27.30
2023-08-18T23:17:54.705Z,27.30
2023-08-18T23:20:21.609Z,27.30
2023-08-18T23:22:48.464Z,27.30
2023-08-18T23:25:15.356Z,27.20
2023-08-18T23:27:42.205Z,27.20
2023-08-18T23:30:10.798Z,27.20
2023-08-18T23:32:37.701Z,27.10
2023-08-18T23:35:05.113Z,27.10
2023-08-18T23:37:32.266Z,27.10
2023-08-18T23:39:59.433Z,27.10
2023-08-18T23:42:26.276Z,27.10
2023-08-18T23:44:53.121Z,27.10
2023-08-18T23:47:19.913Z,27.00
2023-08-18T23:49:46.726Z,27.10
2023-08-18T23:52:13.570Z,27.00
2023-08-18T23:54:40.468Z,27.00
2023-08-18T23:57:07.420Z,27.00
2023-08-18T23:59:34.691Z,26.90
